createdAt,value
2023-03-13T00:02:22.531Z,-0.97
2023-03-13T00:08:15.669Z,-0.97
2023-03-13T00:10:45.449Z,-1.01
2023-03-13T00:13:14.739Z,-1.02
2023-03-13T00:15:45.905Z,-1.02
2023-03-13T00:18:14.514Z,-1.02
2023-03-13T00:20:42.742Z,-1.04
2023-03-13T00:23:16.797Z,-1.03
2023-03-13T00:25:45.803Z,-1.03
2023-03-13T00:28:14.106Z,-1.04
2023-03-13T00:30:46.042Z,-1.03
2023-03-13T00:33:14.321Z,-1.04
2023-03-13T00:35:42.981Z,-1.03
2023-03-13T00:38:11.368Z,-1.04
2023-03-13T00:40:40.066Z,-1.03
2023-03-13T00:43:09.276Z,-1.03
2023-03-13T00:45:37.836Z,-1.02
2023-03-13T00:48:06.441Z,-1.01
2023-03-13T00:50:36.064Z,-1.02
2023-03-13T00:53:04.419Z,-1.01
2023-03-13T00:55:32.785Z,-1.00
2023-03-13T00:58:01.622Z,-1.00
2023-03-13T01:00:30.051Z,-0.99
2023-03-13T01:03:00.413Z,-0.98
2023-03-13T01:05:28.810Z,-0.97
2023-03-13T01:07:57.104Z,-0.97
2023-03-13T01:10:27.155Z,-0.98
2023-03-13T01:12:56.645Z,-0.99
2023-03-13T01:15:26.280Z,-0.99
2023-03-13T01:17:55.277Z,-0.99
2023-03-13T01:20:26.182Z,-1.00
2023-03-13T01:22:54.877Z,-1.00
2023-03-13T01:25:24.962Z,-0.99
2023-03-13T01:27:54.887Z,-1.00
2023-03-13T01:30:23.707Z,-1.00
2023-03-13T01:32:55.132Z,-1.00
2023-03-13T01:35:26.898Z,-1.00
2023-03-13T01:37:56.850Z,-1.00
2023-03-13T01:40:25.066Z,-1.00
2023-03-13T01:42:58.888Z,-1.00
2023-03-13T01:45:52.878Z,-1.01
2023-03-13T01:48:34.815Z,-1.01
2023-03-13T01:51:06.788Z,-1.01
2023-03-13T01:53:35.667Z,-1.03
2023-03-13T01:56:06.232Z,-1.05
2023-03-13T01:58:36.015Z,-1.06
2023-03-13T02:01:04.361Z,-1.09
2023-03-13T02:03:39.863Z,-1.11
2023-03-13T02:06:08.663Z,-1.12
2023-03-13T02:08:50.926Z,-1.12
2023-03-13T02:12:01.472Z,-1.14
2023-03-13T02:14:31.045Z,-1.15
2023-03-13T02:16:59.768Z,-1.17
2023-03-13T02:19:46.072Z,-1.18
2023-03-13T02:22:14.735Z,-1.19
2023-03-13T02:25:14.415Z,-1.19
2023-03-13T02:27:43.310Z,-1.21
2023-03-13T02:30:13.710Z,-1.23
2023-03-13T02:32:43.079Z,-1.24
2023-03-13T02:35:19.005Z,-1.26
2023-03-13T02:37:53.734Z,-1.26
2023-03-13T02:40:24.870Z,-1.27
2023-03-13T02:42:58.741Z,-1.29
2023-03-13T02:45:28.307Z,-1.28
2023-03-13T02:47:56.612Z,-1.28
2023-03-13T02:50:25.764Z,-1.29
2023-03-13T02:53:00.471Z,-1.30
2023-03-13T02:55:35.899Z,-1.31
2023-03-13T02:58:04.708Z,-1.32
2023-03-13T03:00:36.734Z,-1.34
2023-03-13T03:03:05.241Z,-1.34
2023-03-13T03:05:33.766Z,-1.35
2023-03-13T03:08:02.532Z,-1.35
2023-03-13T03:10:31.124Z,-1.36
2023-03-13T03:13:00.996Z,-1.35
2023-03-13T03:15:29.734Z,-1.36
2023-03-13T03:17:58.547Z,-1.36
2023-03-13T03:20:26.792Z,-1.35
2023-03-13T03:22:55.120Z,-1.35
2023-03-13T03:25:25.190Z,-1.36
2023-03-13T03:27:55.125Z,-1.37
2023-03-13T03:30:23.708Z,-1.37
2023-03-13T03:32:53.049Z,-1.37
2023-03-13T03:35:22.419Z,-1.37
2023-03-13T03:37:51.630Z,-1.37
2023-03-13T03:40:21.593Z,-1.37
2023-03-13T03:42:52.767Z,-1.37
2023-03-13T03:45:41.084Z,-1.37
2023-03-13T03:48:10.568Z,-1.38
2023-03-13T03:50:39.076Z,-1.39
2023-03-13T03:53:13.902Z,-1.39
2023-03-13T03:55:42.468Z,-1.40
2023-03-13T03:58:10.805Z,-1.40
2023-03-13T04:01:01.714Z,-1.41
2023-03-13T04:03:30.573Z,-1.41
2023-03-13T04:05:59.103Z,-1.42
2023-03-13T04:08:27.688Z,-1.43
2023-03-13T04:10:57.183Z,-1.44
2023-03-13T04:13:29.171Z,-1.45
2023-03-13T04:16:06.278Z,-1.46
2023-03-13T04:18:38.285Z,-1.47
2023-03-13T04:21:06.939Z,-1.49
2023-03-13T04:23:51.604Z,-1.51
2023-03-13T04:26:20.159Z,-1.53
2023-03-13T04:28:51.088Z,-1.55
2023-03-13T04:31:24.871Z,-1.56
2023-03-13T04:34:09.495Z,-1.56
2023-03-13T04:37:02.095Z,-1.57
2023-03-13T04:39:54.123Z,-1.59
2023-03-13T04:42:42.846Z,-1.58
2023-03-13T04:45:34.215Z,-1.56
2023-03-13T04:48:32.761Z,-1.55
2023-03-13T04:51:33.932Z,-1.53
2023-03-13T04:54:26.094Z,-1.50
2023-03-13T04:57:27.011Z,-1.48
2023-03-13T05:00:32.396Z,-1.46
2023-03-13T05:03:16.334Z,-1.43
2023-03-13T05:05:55.267Z,-1.40
2023-03-13T05:08:46.982Z,-1.36
2023-03-13T05:11:21.525Z,-1.33
2023-03-13T05:14:20.029Z,-1.29
2023-03-13T05:16:58.463Z,-1.26
2023-03-13T05:19:32.532Z,-1.23
2023-03-13T05:22:19.258Z,-1.20
2023-03-13T05:25:07.781Z,-1.17
2023-03-13T05:27:56.259Z,-1.14
2023-03-13T05:30:45.222Z,-1.12
2023-03-13T05:33:47.676Z,-1.10
2023-03-13T05:36:41.386Z,-1.09
2023-03-13T05:39:41.132Z,-1.06
2023-03-13T05:42:47.536Z,-1.03
2023-03-13T05:45:32.605Z,-0.98
2023-03-13T05:48:16.217Z,-0.94
2023-03-13T05:51:05.352Z,-0.88
2023-03-13T05:53:52.059Z,-0.83
2023-03-13T05:56:40.299Z,-0.77
2023-03-13T05:59:27.283Z,-0.70
2023-03-13T06:02:13.895Z,-0.62
2023-03-13T06:04:44.086Z,-0.54
2023-03-13T06:07:12.765Z,-0.46
2023-03-13T06:09:43.339Z,-0.37
2023-03-13T06:12:12.376Z,-0.27
2023-03-13T06:14:40.795Z,-0.16
2023-03-13T06:17:27.912Z,-0.06
2023-03-13T06:19:56.805Z,0.04
2023-03-13T06:22:25.863Z,0.13
2023-03-13T06:24:54.674Z,0.22
2023-03-13T06:27:22.971Z,0.30
2023-03-13T06:29:53.073Z,0.40
2023-03-13T06:32:21.650Z,0.49
2023-03-13T06:34:54.435Z,0.59
2023-03-13T06:37:23.591Z,0.69
2023-03-13T06:39:51.717Z,0.77
2023-03-13T06:42:20.141Z,0.85
2023-03-13T06:44:48.366Z,0.93
2023-03-13T06:47:16.655Z,1.00
2023-03-13T06:49:45.959Z,1.08
2023-03-13T06:52:20.279Z,1.17
2023-03-13T06:54:48.771Z,1.25
2023-03-13T06:57:16.931Z,1.33
2023-03-13T06:59:45.161Z,1.40
2023-03-13T07:02:13.310Z,1.47
2023-03-13T07:04:46.751Z,1.53
2023-03-13T07:07:25.756Z,1.59
2023-03-13T07:09:57.831Z,1.66
2023-03-13T07:12:29.506Z,1.72
2023-03-13T07:14:57.723Z,1.77
2023-03-13T07:17:25.928Z,1.81
2023-03-13T07:19:56.531Z,1.86
2023-03-13T07:22:24.846Z,1.89
2023-03-13T07:24:56.183Z,1.95
2023-03-13T07:27:24.866Z,2.00
2023-03-13T07:29:53.122Z,2.08
2023-03-13T07:32:21.481Z,2.15
2023-03-13T07:34:49.830Z,2.21
2023-03-13T07:37:18.837Z,2.25
2023-03-13T07:39:47.140Z,2.29
2023-03-13T07:42:16.500Z,2.33
2023-03-13T07:44:45.560Z,2.35
2023-03-13T07:47:13.705Z,2.36
2023-03-13T07:49:44.319Z,2.41
2023-03-13T07:52:13.030Z,2.47
2023-03-13T07:54:42.915Z,2.54
2023-03-13T07:57:11.505Z,2.58
2023-03-13T07:59:39.731Z,2.62
2023-03-13T08:02:09.876Z,2.68
2023-03-13T08:04:38.368Z,2.74
2023-03-13T08:07:11.325Z,2.80
2023-03-13T08:09:41.580Z,2.87
2023-03-13T08:12:11.135Z,2.93
2023-03-13T08:14:48.570Z,3.00
2023-03-13T08:17:16.760Z,3.08
2023-03-13T08:19:46.012Z,3.15
2023-03-13T08:22:14.937Z,3.22
2023-03-13T08:24:43.234Z,3.29
2023-03-13T08:27:13.311Z,3.37
2023-03-13T08:29:41.661Z,3.44
2023-03-13T08:32:11.758Z,3.49
2023-03-13T08:34:39.877Z,3.52
2023-03-13T08:37:08.258Z,3.58
2023-03-13T08:39:37.530Z,3.64
2023-03-13T08:42:06.851Z,3.68
2023-03-13T08:44:35.308Z,3.72
2023-03-13T08:47:06.282Z,3.76
2023-03-13T08:49:34.602Z,3.79
2023-03-13T08:52:05.624Z,3.83
2023-03-13T08:54:34.081Z,3.89
2023-03-13T08:57:02.409Z,3.96
2023-03-13T08:59:31.120Z,4.02
2023-03-13T09:02:03.413Z,4.06
2023-03-13T09:04:31.809Z,4.10
2023-03-13T09:07:00.111Z,4.16
2023-03-13T09:09:30.318Z,4.25
2023-03-13T09:11:58.611Z,4.34
2023-03-13T09:14:27.927Z,4.40
2023-03-13T09:16:56.621Z,4.45
2023-03-13T09:19:25.238Z,4.48
2023-03-13T09:21:59.353Z,4.49
2023-03-13T09:24:27.748Z,4.48
2023-03-13T09:27:01.451Z,4.51
2023-03-13T09:29:31.382Z,4.55
2023-03-13T09:31:59.817Z,4.58
2023-03-13T09:34:28.439Z,4.61
2023-03-13T09:36:56.554Z,4.64
2023-03-13T09:39:27.497Z,4.66
2023-03-13T09:42:35.108Z,4.69
2023-03-13T09:45:07.015Z,4.72
2023-03-13T09:47:46.740Z,4.77
2023-03-13T09:50:31.669Z,4.81
2023-03-13T09:53:06.753Z,4.87
2023-03-13T09:55:35.468Z,4.86
2023-03-13T09:58:16.640Z,4.85
2023-03-13T10:00:48.415Z,4.86
2023-03-13T10:03:23.473Z,4.85
2023-03-13T10:05:54.414Z,4.85
2023-03-13T10:08:36.013Z,4.86
2023-03-13T10:11:04.847Z,4.87
2023-03-13T10:13:33.414Z,4.90
2023-03-13T10:16:03.336Z,4.96
2023-03-13T10:18:31.873Z,5.03
2023-03-13T10:21:03.372Z,5.09
2023-03-13T10:23:46.895Z,5.16
2023-03-13T10:26:21.765Z,5.22
2023-03-13T10:28:50.909Z,5.27
2023-03-13T10:31:36.699Z,5.31
2023-03-13T10:34:09.847Z,5.35
2023-03-13T10:36:49.824Z,5.41
2023-03-13T10:39:25.194Z,5.49
2023-03-13T10:42:09.171Z,5.53
2023-03-13T10:44:37.475Z,5.52
2023-03-13T10:47:06.126Z,5.53
2023-03-13T10:49:34.700Z,5.53
2023-03-13T10:52:04.912Z,5.54
2023-03-13T10:54:37.537Z,5.55
2023-03-13T10:57:26.198Z,5.55
2023-03-13T10:59:54.516Z,5.55
2023-03-13T11:02:34.074Z,5.53
2023-03-13T11:05:38.117Z,5.52
2023-03-13T11:08:35.892Z,5.52
2023-03-13T11:11:06.090Z,5.53
2023-03-13T11:13:41.222Z,5.56
2023-03-13T11:16:29.488Z,5.60
2023-03-13T11:19:08.043Z,5.65
2023-03-13T11:21:45.658Z,5.69
2023-03-13T11:24:18.970Z,5.70
2023-03-13T11:27:04.650Z,5.72
2023-03-13T11:30:12.835Z,5.76
2023-03-13T11:32:52.317Z,5.79
2023-03-13T11:35:34.606Z,5.85
2023-03-13T11:38:20.241Z,5.93
2023-03-13T11:41:11.730Z,6.02
2023-03-13T11:43:45.458Z,6.10
2023-03-13T11:46:28.923Z,6.16
2023-03-13T11:49:28.980Z,6.23
2023-03-13T11:52:14.261Z,6.32
2023-03-13T11:55:24.314Z,6.41
2023-03-13T11:58:21.459Z,6.48
2023-03-13T12:01:03.068Z,6.57
2023-03-13T12:03:55.272Z,6.64
2023-03-13T12:06:31.668Z,6.72
2023-03-13T12:09:08.359Z,6.77
2023-03-13T12:11:43.879Z,6.82
2023-03-13T12:14:22.588Z,6.85
2023-03-13T12:16:57.255Z,6.85
2023-03-13T12:19:48.750Z,6.84
2023-03-13T12:22:34.302Z,6.83
2023-03-13T12:25:40.108Z,6.85
2023-03-13T12:28:29.416Z,6.84
2023-03-13T12:31:19.266Z,6.86
2023-03-13T12:34:12.104Z,6.89
2023-03-13T12:36:53.152Z,6.92
2023-03-13T12:39:21.361Z,6.95
2023-03-13T12:42:20.378Z,6.98
2023-03-13T12:44:49.399Z,7.01
2023-03-13T12:47:55.321Z,7.03
2023-03-13T12:50:30.123Z,7.06
2023-03-13T12:53:10.402Z,7.07
2023-03-13T12:56:10.867Z,7.12
2023-03-13T12:58:55.697Z,7.17
2023-03-13T13:01:44.603Z,7.19
2023-03-13T13:04:13.747Z,7.20
2023-03-13T13:06:51.821Z,7.21
2023-03-13T13:09:25.738Z,7.23
2023-03-13T13:12:01.171Z,7.25
2023-03-13T13:14:29.405Z,7.26
2023-03-13T13:17:11.713Z,7.27
2023-03-13T13:19:40.162Z,7.27
2023-03-13T13:22:39.695Z,7.27
2023-03-13T13:25:08.388Z,7.29
2023-03-13T13:27:36.557Z,7.31
2023-03-13T13:30:25.982Z,7.33
2023-03-13T13:33:18.924Z,7.32
2023-03-13T13:35:48.195Z,7.30
2023-03-13T13:38:19.573Z,7.30
2023-03-13T13:41:09.069Z,7.30
2023-03-13T13:43:45.502Z,7.30
2023-03-13T13:46:24.812Z,7.30
2023-03-13T13:49:07.903Z,7.31
2023-03-13T13:51:38.042Z,7.32
2023-03-13T13:54:12.943Z,7.33
2023-03-13T13:56:47.309Z,7.35
2023-03-13T13:59:21.349Z,7.38
2023-03-13T14:02:07.845Z,7.40
2023-03-13T14:04:39.378Z,7.42
2023-03-13T14:07:07.910Z,7.43
2023-03-13T14:10:05.488Z,7.44
2023-03-13T14:12:38.497Z,7.44
2023-03-13T14:15:17.296Z,7.44
2023-03-13T14:17:55.259Z,7.43
2023-03-13T14:20:32.677Z,7.43
2023-03-13T14:23:08.077Z,7.44
2023-03-13T14:25:50.112Z,7.43
2023-03-13T14:28:27.904Z,7.43
2023-03-13T14:30:57.109Z,7.42
2023-03-13T14:33:27.040Z,7.40
2023-03-13T14:35:57.927Z,7.40
2023-03-13T14:38:30.122Z,7.39
2023-03-13T14:40:58.263Z,7.38
2023-03-13T14:43:37.115Z,7.37
2023-03-13T14:46:26.794Z,7.38
2023-03-13T14:48:56.146Z,7.38
2023-03-13T14:51:26.059Z,7.38
2023-03-13T14:53:56.634Z,7.38
2023-03-13T14:56:38.109Z,7.38
2023-03-13T14:59:16.611Z,7.38
2023-03-13T15:01:45.900Z,7.38
2023-03-13T15:04:14.160Z,7.37
2023-03-13T15:06:44.216Z,7.38
2023-03-13T15:09:22.699Z,7.37
2023-03-13T15:11:56.694Z,7.36
2023-03-13T15:14:33.980Z,7.35
2023-03-13T15:17:16.220Z,7.34
2023-03-13T15:19:48.485Z,7.34
2023-03-13T15:22:16.996Z,7.33
2023-03-13T15:24:56.114Z,7.31
2023-03-13T15:27:33.758Z,7.30
2023-03-13T15:30:02.002Z,7.29
2023-03-13T15:32:33.213Z,7.27
2023-03-13T15:35:02.249Z,7.27
2023-03-13T15:37:30.926Z,7.25
2023-03-13T15:39:59.355Z,7.24
2023-03-13T15:42:33.353Z,7.24
2023-03-13T15:45:01.700Z,7.24
2023-03-13T15:47:30.651Z,7.24
2023-03-13T15:49:59.087Z,7.23
2023-03-13T15:52:28.496Z,7.22
2023-03-13T15:54:59.380Z,7.22
2023-03-13T15:57:27.910Z,7.21
2023-03-13T15:59:56.031Z,7.20
2023-03-13T16:02:24.305Z,7.19
2023-03-13T16:04:52.778Z,7.19
2023-03-13T16:07:21.306Z,7.19
2023-03-13T16:09:50.713Z,7.19
2023-03-13T16:12:22.606Z,7.19
2023-03-13T16:14:56.539Z,7.18
2023-03-13T16:17:28.295Z,7.18
2023-03-13T16:20:10.701Z,7.18
2023-03-13T16:22:38.958Z,7.18
2023-03-13T16:25:07.777Z,7.18
2023-03-13T16:27:36.296Z,7.18
2023-03-13T16:30:07.233Z,7.19
2023-03-13T16:32:41.500Z,7.19
2023-03-13T16:35:10.165Z,7.19
2023-03-13T16:37:38.449Z,7.18
2023-03-13T16:40:19.047Z,7.18
2023-03-13T16:42:47.204Z,7.18
2023-03-13T16:45:15.991Z,7.18
2023-03-13T16:47:45.678Z,7.18
2023-03-13T16:50:34.173Z,7.17
2023-03-13T16:53:02.500Z,7.18
2023-03-13T16:55:36.460Z,7.18
2023-03-13T16:58:05.097Z,7.19
2023-03-13T17:00:33.686Z,7.18
2023-03-13T17:03:01.867Z,7.18
2023-03-13T17:05:30.529Z,7.17
2023-03-13T17:07:58.657Z,7.17
2023-03-13T17:10:28.524Z,7.17
2023-03-13T17:12:56.694Z,7.17
2023-03-13T17:15:26.402Z,7.17
2023-03-13T17:17:56.156Z,7.17
2023-03-13T17:20:26.982Z,7.17
2023-03-13T17:22:58.244Z,7.17
2023-03-13T17:25:26.542Z,7.17
2023-03-13T17:27:56.270Z,7.16
2023-03-13T17:30:30.266Z,7.16
2023-03-13T17:32:59.253Z,7.15
2023-03-13T17:35:27.816Z,7.15
2023-03-13T17:37:56.133Z,7.15
2023-03-13T17:40:28.185Z,7.13
2023-03-13T17:42:57.422Z,7.10
2023-03-13T17:45:25.721Z,7.07
2023-03-13T17:47:54.626Z,7.03
2023-03-13T17:50:27.410Z,6.99
2023-03-13T17:52:59.052Z,6.94
2023-03-13T17:55:27.316Z,6.90
2023-03-13T17:57:55.657Z,6.87
2023-03-13T18:00:25.977Z,6.82
2023-03-13T18:02:54.405Z,6.78
2023-03-13T18:05:23.194Z,6.75
2023-03-13T18:07:54.702Z,6.72
2023-03-13T18:10:27.793Z,6.69
2023-03-13T18:12:59.731Z,6.65
2023-03-13T18:15:28.259Z,6.61
2023-03-13T18:18:03.341Z,6.57
2023-03-13T18:20:32.546Z,6.54
2023-03-13T18:23:01.277Z,6.51
2023-03-13T18:25:32.398Z,6.49
2023-03-13T18:28:01.414Z,6.47
2023-03-13T18:30:29.843Z,6.45
2023-03-13T18:32:58.051Z,6.43
2023-03-13T18:35:26.575Z,6.42
2023-03-13T18:37:56.312Z,6.40
2023-03-13T18:40:26.674Z,6.39
2023-03-13T18:42:58.713Z,6.37
2023-03-13T18:45:28.376Z,6.36
2023-03-13T18:47:56.507Z,6.35
2023-03-13T18:50:30.073Z,6.34
2023-03-13T18:52:59.626Z,6.32
2023-03-13T18:55:28.972Z,6.30
2023-03-13T18:57:57.461Z,6.27
2023-03-13T19:00:27.509Z,6.25
2023-03-13T19:02:55.791Z,6.21
2023-03-13T19:05:24.257Z,6.18
2023-03-13T19:07:53.028Z,6.13
2023-03-13T19:10:24.385Z,6.09
2023-03-13T19:12:58.213Z,6.05
2023-03-13T19:15:28.215Z,6.01
2023-03-13T19:17:57.493Z,5.98
2023-03-13T19:20:25.627Z,5.94
2023-03-13T19:22:55.947Z,5.91
2023-03-13T19:25:24.728Z,5.88
2023-03-13T19:27:53.183Z,5.85
2023-03-13T19:30:22.833Z,5.83
2023-03-13T19:34:19.687Z,5.80
2023-03-13T19:36:48.834Z,5.74
2023-03-13T19:39:24.011Z,5.70
2023-03-13T19:41:52.934Z,5.66
2023-03-13T19:44:22.496Z,5.62
2023-03-13T19:46:52.013Z,5.58
2023-03-13T19:49:20.909Z,5.55
2023-03-13T19:51:49.945Z,5.52
2023-03-13T19:54:18.698Z,5.50
2023-03-13T19:56:48.891Z,5.47
2023-03-13T19:59:21.201Z,5.45
2023-03-13T20:01:49.520Z,5.42
2023-03-13T20:04:17.749Z,5.40
2023-03-13T20:06:46.129Z,5.37
2023-03-13T20:09:18.434Z,5.35
2023-03-13T20:11:46.681Z,5.32
2023-03-13T20:14:17.006Z,5.29
2023-03-13T20:16:49.014Z,5.26
2023-03-13T20:19:17.582Z,5.24
2023-03-13T20:21:46.728Z,5.22
2023-03-13T20:24:15.027Z,5.19
2023-03-13T20:26:43.173Z,5.17
2023-03-13T20:29:11.335Z,5.16
2023-03-13T20:31:40.001Z,5.15
2023-03-13T20:34:09.953Z,5.14
2023-03-13T20:36:39.075Z,5.13
2023-03-13T20:39:08.269Z,5.13
2023-03-13T20:41:37.705Z,5.11
2023-03-13T20:44:06.026Z,5.10
2023-03-13T20:46:35.354Z,5.10
2023-03-13T20:49:03.959Z,5.10
2023-03-13T20:51:37.995Z,5.09
2023-03-13T20:54:06.485Z,5.08
2023-03-13T20:56:34.652Z,5.07
2023-03-13T20:59:03.774Z,5.06
2023-03-13T21:01:32.493Z,5.05
2023-03-13T21:04:00.706Z,5.06
2023-03-13T21:06:30.413Z,5.04
2023-03-13T21:09:02.631Z,5.02
2023-03-13T21:11:30.845Z,5.01
2023-03-13T21:13:59.420Z,5.00
2023-03-13T21:16:33.123Z,4.99
2023-03-13T21:19:01.480Z,4.97
2023-03-13T21:21:29.992Z,4.95
2023-03-13T21:24:03.509Z,4.95
2023-03-13T21:26:32.596Z,4.93
2023-03-13T21:29:00.799Z,4.93
2023-03-13T21:31:29.913Z,4.92
2023-03-13T21:33:58.450Z,4.90
2023-03-13T21:36:26.864Z,4.89
2023-03-13T21:38:55.436Z,4.89
2023-03-13T21:41:24.504Z,4.89
2023-03-13T21:43:53.135Z,4.90
2023-03-13T21:46:22.769Z,4.90
2023-03-13T21:48:52.700Z,4.91
2023-03-13T21:51:21.003Z,4.91
2023-03-13T21:53:49.662Z,4.92
2023-03-13T21:56:18.396Z,4.93
2023-03-13T21:58:46.483Z,4.93
2023-03-13T22:01:14.861Z,4.93
2023-03-13T22:03:43.186Z,4.93
2023-03-13T22:06:15.276Z,4.93
2023-03-13T22:08:48.740Z,4.93
2023-03-13T22:11:21.742Z,4.93
2023-03-13T22:13:51.649Z,4.93
2023-03-13T22:16:21.185Z,4.93
2023-03-13T22:18:51.648Z,4.93
2023-03-13T22:21:20.301Z,4.92
2023-03-13T22:23:48.476Z,4.93
2023-03-13T22:26:16.938Z,4.93
2023-03-13T22:28:45.576Z,4.92
2023-03-13T22:31:15.745Z,4.92
2023-03-13T22:33:43.903Z,4.91
2023-03-13T22:36:12.867Z,4.90
2023-03-13T22:38:43.373Z,4.90
2023-03-13T22:41:13.080Z,4.90
2023-03-13T22:43:41.303Z,4.89
2023-03-13T22:46:10.976Z,4.89
2023-03-13T22:48:39.148Z,4.89
2023-03-13T22:51:09.150Z,4.89
2023-03-13T22:53:38.618Z,4.89
2023-03-13T22:56:07.519Z,4.89
2023-03-13T22:58:36.505Z,4.89
2023-03-13T23:01:17.424Z,4.89
2023-03-13T23:03:46.995Z,4.88
2023-03-13T23:06:16.993Z,4.88
2023-03-13T23:08:46.005Z,4.87
2023-03-13T23:11:14.701Z,4.88
2023-03-13T23:13:46.640Z,4.87
2023-03-13T23:16:16.531Z,4.86
2023-03-13T23:18:45.231Z,4.86
2023-03-13T23:21:16.441Z,4.85
2023-03-13T23:23:45.199Z,4.85
2023-03-13T23:26:14.513Z,4.84
2023-03-13T23:28:43.527Z,4.82
2023-03-13T23:31:16.168Z,4.81
2023-03-13T23:33:47.984Z,4.79
2023-03-13T23:36:17.698Z,4.77
2023-03-13T23:38:48.922Z,4.76
2023-03-13T23:41:17.032Z,4.75
2023-03-13T23:43:45.173Z,4.75
2023-03-13T23:46:22.464Z,4.74
2023-03-13T23:48:57.168Z,4.73
2023-03-13T23:51:25.471Z,4.72
2023-03-13T23:53:53.765Z,4.71
2023-03-13T23:56:22.191Z,4.71
2023-03-13T23:58:55.707Z,4.70
